sensor_id;sensor_type;location;lat;lon;timestamp;P1;durP1;ratioP1;P2;durP2;ratioP2
17886;SDS011;9069;52.044;7.472;2023-02-15T00:01:40;24.80;;;12.43;;
17886;SDS011;9069;52.044;7.472;2023-02-15T00:04:08;19.60;;;12.18;;
17886;SDS011;9069;52.044;7.472;2023-02-15T00:06:35;19.42;;;11.95;;
17886;SDS011;9069;52.044;7.472;2023-02-15T00:09:02;18.95;;;11.07;;
17886;SDS011;9069;52.044;7.472;2023-02-15T00:11:29;16.88;;;10.77;;
17886;SDS011;9069;52.044;7.472;2023-02-15T00:14:18;18.23;;;11.48;;
17886;SDS011;9069;52.044;7.472;2023-02-15T00:16:47;21.80;;;11.57;;
17886;SDS011;9069;52.044;7.472;2023-02-15T00:19:15;17.63;;;10.90;;
17886;SDS011;9069;52.044;7.472;2023-02-15T00:21:43;19.83;;;11.73;;
17886;SDS011;9069;52.044;7.472;2023-02-15T00:24:11;20.83;;;11.55;;
17886;SDS011;9069;52.044;7.472;2023-02-15T00:26:39;15.18;;;10.63;;
17886;SDS011;9069;52.044;7.472;2023-02-15T00:29:07;19.45;;;11.10;;
17886;SDS011;9069;52.044;7.472;2023-02-15T00:31:35;19.95;;;11.63;;
17886;SDS011;9069;52.044;7.472;2023-02-15T00:34:06;20.35;;;11.60;;
17886;SDS011;9069;52.044;7.472;2023-02-15T00:36:36;20.00;;;12.52;;
17886;SDS011;9069;52.044;7.472;2023-02-15T00:39:03;19.90;;;12.27;;
17886;SDS011;9069;52.044;7.472;2023-02-15T00:41:31;23.48;;;11.70;;
17886;SDS011;9069;52.044;7.472;2023-02-15T00:43:58;20.10;;;12.30;;
17886;SDS011;9069;52.044;7.472;2023-02-15T00:46:28;23.45;;;13.15;;
17886;SDS011;9069;52.044;7.472;2023-02-15T00:48:55;21.48;;;11.30;;
17886;SDS011;9069;52.044;7.472;2023-02-15T00:51:22;19.73;;;13.10;;
17886;SDS011;9069;52.044;7.472;2023-02-15T00:53:49;20.98;;;12.30;;
17886;SDS011;9069;52.044;7.472;2023-02-15T00:56:15;20.88;;;11.98;;
17886;SDS011;9069;52.044;7.472;2023-02-15T00:58:42;23.25;;;12.30;;
17886;SDS011;9069;52.044;7.472;2023-02-15T01:01:11;23.10;;;12.60;;
17886;SDS011;9069;52.044;7.472;2023-02-15T01:03:39;19.15;;;11.65;;
17886;SDS011;9069;52.044;7.472;2023-02-15T01:06:08;23.90;;;12.98;;
17886;SDS011;9069;52.044;7.472;2023-02-15T01:08:36;21.48;;;11.90;;
17886;SDS011;9069;52.044;7.472;2023-02-15T01:11:10;20.13;;;11.85;;
17886;SDS011;9069;52.044;7.472;2023-02-15T01:13:39;19.50;;;11.82;;
17886;SDS011;9069;52.044;7.472;2023-02-15T01:16:07;21.92;;;12.30;;
17886;SDS011;9069;52.044;7.472;2023-02-15T01:18:34;20.05;;;11.93;;
17886;SDS011;9069;52.044;7.472;2023-02-15T01:21:23;23.45;;;13.07;;
17886;SDS011;9069;52.044;7.472;2023-02-15T01:23:49;22.27;;;12.00;;
17886;SDS011;9069;52.044;7.472;2023-02-15T01:26:16;17.45;;;10.68;;
17886;SDS011;9069;52.044;7.472;2023-02-15T01:28:43;20.25;;;11.68;;
17886;SDS011;9069;52.044;7.472;2023-02-15T01:31:11;21.75;;;12.55;;
17886;SDS011;9069;52.044;7.472;2023-02-15T01:33:40;19.40;;;11.88;;
17886;SDS011;9069;52.044;7.472;2023-02-15T01:36:08;22.33;;;12.25;;
17886;SDS011;9069;52.044;7.472;2023-02-15T01:38:37;24.00;;;12.88;;
17886;SDS011;9069;52.044;7.472;2023-02-15T01:41:05;22.90;;;12.77;;
17886;SDS011;9069;52.044;7.472;2023-02-15T01:43:54;18.70;;;11.13;;
17886;SDS011;9069;52.044;7.472;2023-02-15T01:46:40;22.20;;;11.32;;
17886;SDS011;9069;52.044;7.472;2023-02-15T01:49:13;18.77;;;11.38;;
17886;SDS011;9069;52.044;7.472;2023-02-15T01:51:44;19.95;;;11.75;;
17886;SDS011;9069;52.044;7.472;2023-02-15T01:54:15;17.60;;;10.93;;
17886;SDS011;9069;52.044;7.472;2023-02-15T01:56:47;16.10;;;9.77;;
17886;SDS011;9069;52.044;7.472;2023-02-15T01:59:16;20.15;;;11.13;;
17886;SDS011;9069;52.044;7.472;2023-02-15T02:01:47;23.00;;;11.63;;
17886;SDS011;9069;52.044;7.472;2023-02-15T02:06:57;21.65;;;11.57;;
17886;SDS011;9069;52.044;7.472;2023-02-15T02:09:25;18.48;;;11.27;;
17886;SDS011;9069;52.044;7.472;2023-02-15T02:11:52;23.50;;;13.27;;
17886;SDS011;9069;52.044;7.472;2023-02-15T02:14:20;19.75;;;11.68;;
17886;SDS011;9069;52.044;7.472;2023-02-15T02:17:09;27.70;;;13.52;;
17886;SDS011;9069;52.044;7.472;2023-02-15T02:30:40;21.38;;;11.75;;
17886;SDS011;9069;52.044;7.472;2023-02-15T02:33:41;21.75;;;11.57;;
17886;SDS011;9069;52.044;7.472;2023-02-15T02:38:59;23.27;;;13.02;;
17886;SDS011;9069;52.044;7.472;2023-02-15T02:44:10;23.90;;;12.60;;
17886;SDS011;9069;52.044;7.472;2023-02-15T02:49:31;23.88;;;13.38;;
17886;SDS011;9069;52.044;7.472;2023-02-15T02:52:00;25.20;;;13.70;;
17886;SDS011;9069;52.044;7.472;2023-02-15T02:54:29;26.70;;;13.10;;
17886;SDS011;9069;52.044;7.472;2023-02-15T02:56:58;28.70;;;13.52;;
17886;SDS011;9069;52.044;7.472;2023-02-15T02:59:31;21.33;;;12.63;;
17886;SDS011;9069;52.044;7.472;2023-02-15T03:02:05;22.05;;;12.95;;
17886;SDS011;9069;52.044;7.472;2023-02-15T03:04:43;25.27;;;13.23;;
17886;SDS011;9069;52.044;7.472;2023-02-15T03:07:16;20.25;;;12.10;;
17886;SDS011;9069;52.044;7.472;2023-02-15T03:09:52;26.52;;;13.63;;
17886;SDS011;9069;52.044;7.472;2023-02-15T03:12:22;24.48;;;13.10;;
17886;SDS011;9069;52.044;7.472;2023-02-15T03:14:57;24.23;;;13.38;;
17886;SDS011;9069;52.044;7.472;2023-02-15T03:17:46;22.40;;;12.85;;
17886;SDS011;9069;52.044;7.472;2023-02-15T03:20:22;22.75;;;12.63;;
17886;SDS011;9069;52.044;7.472;2023-02-15T03:22:56;20.58;;;12.15;;
17886;SDS011;9069;52.044;7.472;2023-02-15T03:25:35;24.77;;;13.55;;
17886;SDS011;9069;52.044;7.472;2023-02-15T03:28:11;26.80;;;12.45;;
17886;SDS011;9069;52.044;7.472;2023-02-15T03:30:43;22.60;;;13.32;;
17886;SDS011;9069;52.044;7.472;2023-02-15T03:33:14;23.67;;;13.38;;
17886;SDS011;9069;52.044;7.472;2023-02-15T03:35:46;22.77;;;12.13;;
17886;SDS011;9069;52.044;7.472;2023-02-15T03:38:20;34.22;;;13.55;;
17886;SDS011;9069;52.044;7.472;2023-02-15T03:40:50;26.95;;;13.68;;
17886;SDS011;9069;52.044;7.472;2023-02-15T03:46:12;28.17;;;13.82;;
17886;SDS011;9069;52.044;7.472;2023-02-15T03:48:56;23.65;;;12.13;;
17886;SDS011;9069;52.044;7.472;2023-02-15T03:51:32;23.05;;;11.70;;
17886;SDS011;9069;52.044;7.472;2023-02-15T03:54:03;23.50;;;12.82;;
17886;SDS011;9069;52.044;7.472;2023-02-15T03:56:40;22.25;;;12.77;;
17886;SDS011;9069;52.044;7.472;2023-02-15T03:59:08;22.50;;;13.05;;
17886;SDS011;9069;52.044;7.472;2023-02-15T04:04:53;28.48;;;13.40;;
17886;SDS011;9069;52.044;7.472;2023-02-15T04:07:19;21.25;;;12.32;;
17886;SDS011;9069;52.044;7.472;2023-02-15T04:09:46;22.75;;;12.75;;
17886;SDS011;9069;52.044;7.472;2023-02-15T04:12:32;23.23;;;12.85;;
17886;SDS011;9069;52.044;7.472;2023-02-15T04:14:58;23.92;;;12.25;;
17886;SDS011;9069;52.044;7.472;2023-02-15T04:17:43;23.48;;;13.65;;
17886;SDS011;9069;52.044;7.472;2023-02-15T04:20:10;21.85;;;11.77;;
17886;SDS011;9069;52.044;7.472;2023-02-15T04:22:55;21.08;;;12.13;;
17886;SDS011;9069;52.044;7.472;2023-02-15T04:25:41;25.00;;;13.63;;
17886;SDS011;9069;52.044;7.472;2023-02-15T04:28:07;21.88;;;12.07;;
17886;SDS011;9069;52.044;7.472;2023-02-15T04:30:34;28.15;;;13.60;;
17886;SDS011;9069;52.044;7.472;2023-02-15T04:33:01;29.77;;;12.93;;
17886;SDS011;9069;52.044;7.472;2023-02-15T04:35:28;28.08;;;13.20;;
17886;SDS011;9069;52.044;7.472;2023-02-15T04:37:54;19.25;;;11.93;;
17886;SDS011;9069;52.044;7.472;2023-02-15T04:40:22;19.30;;;11.75;;
17886;SDS011;9069;52.044;7.472;2023-02-15T04:42:48;20.90;;;12.32;;
17886;SDS011;9069;52.044;7.472;2023-02-15T04:45:15;26.20;;;12.57;;
17886;SDS011;9069;52.044;7.472;2023-02-15T04:47:43;27.42;;;13.20;;
17886;SDS011;9069;52.044;7.472;2023-02-15T04:50:10;22.67;;;12.38;;
17886;SDS011;9069;52.044;7.472;2023-02-15T04:52:37;22.17;;;12.20;;
17886;SDS011;9069;52.044;7.472;2023-02-15T04:55:04;23.33;;;11.32;;
17886;SDS011;9069;52.044;7.472;2023-02-15T04:57:31;18.63;;;11.27;;
17886;SDS011;9069;52.044;7.472;2023-02-15T04:59:58;25.48;;;13.20;;
17886;SDS011;9069;52.044;7.472;2023-02-15T05:02:25;24.98;;;12.32;;
17886;SDS011;9069;52.044;7.472;2023-02-15T05:04:52;24.48;;;12.88;;
17886;SDS011;9069;52.044;7.472;2023-02-15T05:07:18;21.88;;;13.23;;
17886;SDS011;9069;52.044;7.472;2023-02-15T05:09:46;24.40;;;13.40;;
17886;SDS011;9069;52.044;7.472;2023-02-15T05:12:13;24.95;;;12.50;;
17886;SDS011;9069;52.044;7.472;2023-02-15T05:14:40;23.45;;;13.30;;
17886;SDS011;9069;52.044;7.472;2023-02-15T05:17:06;26.55;;;12.43;;
17886;SDS011;9069;52.044;7.472;2023-02-15T05:19:33;23.60;;;12.65;;
17886;SDS011;9069;52.044;7.472;2023-02-15T05:22:00;27.17;;;13.27;;
17886;SDS011;9069;52.044;7.472;2023-02-15T05:24:26;23.55;;;12.65;;
17886;SDS011;9069;52.044;7.472;2023-02-15T05:27:12;25.33;;;12.85;;
17886;SDS011;9069;52.044;7.472;2023-02-15T05:29:57;27.05;;;13.90;;
17886;SDS011;9069;52.044;7.472;2023-02-15T05:32:24;25.63;;;13.07;;
17886;SDS011;9069;52.044;7.472;2023-02-15T05:34:51;23.27;;;11.98;;
17886;SDS011;9069;52.044;7.472;2023-02-15T05:37:18;23.58;;;12.02;;
17886;SDS011;9069;52.044;7.472;2023-02-15T05:39:45;25.13;;;12.80;;
17886;SDS011;9069;52.044;7.472;2023-02-15T05:42:11;23.80;;;12.10;;
17886;SDS011;9069;52.044;7.472;2023-02-15T05:44:38;21.08;;;11.18;;
17886;SDS011;9069;52.044;7.472;2023-02-15T05:47:05;24.88;;;12.45;;
17886;SDS011;9069;52.044;7.472;2023-02-15T05:49:33;23.95;;;12.27;;
17886;SDS011;9069;52.044;7.472;2023-02-15T05:52:00;23.10;;;11.85;;
17886;SDS011;9069;52.044;7.472;2023-02-15T05:54:27;25.95;;;12.75;;
17886;SDS011;9069;52.044;7.472;2023-02-15T05:56:54;25.10;;;12.20;;
17886;SDS011;9069;52.044;7.472;2023-02-15T05:59:21;23.35;;;13.02;;
17886;SDS011;9069;52.044;7.472;2023-02-15T06:01:48;26.90;;;12.60;;
17886;SDS011;9069;52.044;7.472;2023-02-15T06:04:14;25.65;;;13.18;;
17886;SDS011;9069;52.044;7.472;2023-02-15T06:06:41;21.70;;;11.35;;
17886;SDS011;9069;52.044;7.472;2023-02-15T06:09:12;23.23;;;12.05;;
17886;SDS011;9069;52.044;7.472;2023-02-15T06:11:40;26.65;;;12.85;;
17886;SDS011;9069;52.044;7.472;2023-02-15T06:14:06;23.95;;;12.32;;
17886;SDS011;9069;52.044;7.472;2023-02-15T06:16:33;27.48;;;13.43;;
17886;SDS011;9069;52.044;7.472;2023-02-15T06:19:00;30.27;;;13.57;;
17886;SDS011;9069;52.044;7.472;2023-02-15T06:21:28;21.63;;;12.32;;
17886;SDS011;9069;52.044;7.472;2023-02-15T06:23:56;22.25;;;12.20;;
17886;SDS011;9069;52.044;7.472;2023-02-15T06:26:22;25.55;;;12.93;;
17886;SDS011;9069;52.044;7.472;2023-02-15T06:28:49;23.95;;;13.35;;
17886;SDS011;9069;52.044;7.472;2023-02-15T06:31:16;23.52;;;12.93;;
17886;SDS011;9069;52.044;7.472;2023-02-15T06:33:43;30.85;;;14.55;;
17886;SDS011;9069;52.044;7.472;2023-02-15T06:36:10;26.45;;;13.32;;
17886;SDS011;9069;52.044;7.472;2023-02-15T06:38:36;30.35;;;13.85;;
17886;SDS011;9069;52.044;7.472;2023-02-15T06:41:03;32.95;;;15.18;;
17886;SDS011;9069;52.044;7.472;2023-02-15T06:43:30;27.00;;;13.98;;
17886;SDS011;9069;52.044;7.472;2023-02-15T06:45:57;27.60;;;13.32;;
17886;SDS011;9069;52.044;7.472;2023-02-15T06:48:25;31.83;;;14.30;;
17886;SDS011;9069;52.044;7.472;2023-02-15T06:50:52;27.25;;;14.05;;
17886;SDS011;9069;52.044;7.472;2023-02-15T06:53:18;27.60;;;14.52;;
17886;SDS011;9069;52.044;7.472;2023-02-15T06:55:45;25.85;;;13.85;;
17886;SDS011;9069;52.044;7.472;2023-02-15T06:58:12;29.95;;;13.45;;
17886;SDS011;9069;52.044;7.472;2023-02-15T07:00:38;29.55;;;14.73;;
17886;SDS011;9069;52.044;7.472;2023-02-15T07:03:05;28.48;;;13.55;;
17886;SDS011;9069;52.044;7.472;2023-02-15T07:05:32;21.50;;;12.10;;
17886;SDS011;9069;52.044;7.472;2023-02-15T07:08:00;23.77;;;12.57;;
17886;SDS011;9069;52.044;7.472;2023-02-15T07:10:27;28.13;;;13.73;;
17886;SDS011;9069;52.044;7.472;2023-02-15T07:12:55;29.70;;;13.93;;
17886;SDS011;9069;52.044;7.472;2023-02-15T07:15:21;32.25;;;14.82;;
17886;SDS011;9069;52.044;7.472;2023-02-15T07:17:48;26.92;;;13.90;;
17886;SDS011;9069;52.044;7.472;2023-02-15T07:20:16;33.47;;;13.75;;
17886;SDS011;9069;52.044;7.472;2023-02-15T07:22:45;21.77;;;12.15;;
17886;SDS011;9069;52.044;7.472;2023-02-15T07:25:12;30.45;;;13.75;;
17886;SDS011;9069;52.044;7.472;2023-02-15T07:27:39;25.70;;;13.45;;
17886;SDS011;9069;52.044;7.472;2023-02-15T07:30:07;26.65;;;14.43;;
17886;SDS011;9069;52.044;7.472;2023-02-15T07:32:36;25.55;;;13.68;;
17886;SDS011;9069;52.044;7.472;2023-02-15T07:35:03;31.05;;;14.50;;
17886;SDS011;9069;52.044;7.472;2023-02-15T07:37:29;28.73;;;13.80;;
17886;SDS011;9069;52.044;7.472;2023-02-15T07:39:56;26.75;;;14.35;;
17886;SDS011;9069;52.044;7.472;2023-02-15T07:42:23;27.63;;;14.65;;
17886;SDS011;9069;52.044;7.472;2023-02-15T07:44:50;30.45;;;14.27;;
17886;SDS011;9069;52.044;7.472;2023-02-15T07:47:17;32.58;;;15.10;;
17886;SDS011;9069;52.044;7.472;2023-02-15T07:49:44;28.60;;;14.20;;
17886;SDS011;9069;52.044;7.472;2023-02-15T07:52:11;29.15;;;15.45;;
17886;SDS011;9069;52.044;7.472;2023-02-15T07:54:38;34.53;;;14.95;;
17886;SDS011;9069;52.044;7.472;2023-02-15T07:57:04;24.98;;;13.65;;
17886;SDS011;9069;52.044;7.472;2023-02-15T07:59:31;29.95;;;14.20;;
17886;SDS011;9069;52.044;7.472;2023-02-15T08:01:58;25.45;;;13.30;;
17886;SDS011;9069;52.044;7.472;2023-02-15T08:04:25;29.30;;;14.13;;
17886;SDS011;9069;52.044;7.472;2023-02-15T08:06:52;27.33;;;14.07;;
17886;SDS011;9069;52.044;7.472;2023-02-15T08:09:20;28.27;;;14.57;;
17886;SDS011;9069;52.044;7.472;2023-02-15T08:11:48;30.13;;;15.23;;
17886;SDS011;9069;52.044;7.472;2023-02-15T08:14:19;31.15;;;15.05;;
17886;SDS011;9069;52.044;7.472;2023-02-15T08:16:47;27.92;;;15.10;;
17886;SDS011;9069;52.044;7.472;2023-02-15T08:21:58;31.40;;;16.33;;
17886;SDS011;9069;52.044;7.472;2023-02-15T08:24:28;26.38;;;14.00;;
17886;SDS011;9069;52.044;7.472;2023-02-15T08:26:56;28.88;;;14.85;;
17886;SDS011;9069;52.044;7.472;2023-02-15T08:29:24;30.55;;;14.77;;
17886;SDS011;9069;52.044;7.472;2023-02-15T08:31:54;33.63;;;16.67;;
17886;SDS011;9069;52.044;7.472;2023-02-15T08:34:29;29.30;;;15.43;;
17886;SDS011;9069;52.044;7.472;2023-02-15T08:36:56;29.08;;;15.73;;
17886;SDS011;9069;52.044;7.472;2023-02-15T08:39:23;31.35;;;15.98;;
17886;SDS011;9069;52.044;7.472;2023-02-15T08:41:50;31.08;;;15.18;;
17886;SDS011;9069;52.044;7.472;2023-02-15T08:44:17;27.20;;;14.20;;
17886;SDS011;9069;52.044;7.472;2023-02-15T08:46:46;27.20;;;14.57;;
17886;SDS011;9069;52.044;7.472;2023-02-15T08:49:20;26.70;;;13.15;;
17886;SDS011;9069;52.044;7.472;2023-02-15T08:51:48;29.63;;;14.73;;
17886;SDS011;9069;52.044;7.472;2023-02-15T08:54:16;25.55;;;14.20;;
17886;SDS011;9069;52.044;7.472;2023-02-15T08:56:44;26.58;;;13.68;;
17886;SDS011;9069;52.044;7.472;2023-02-15T08:59:12;26.90;;;14.23;;
17886;SDS011;9069;52.044;7.472;2023-02-15T09:01:42;27.35;;;14.45;;
17886;SDS011;9069;52.044;7.472;2023-02-15T09:04:09;23.08;;;13.60;;
17886;SDS011;9069;52.044;7.472;2023-02-15T09:06:37;29.20;;;13.82;;
17886;SDS011;9069;52.044;7.472;2023-02-15T09:09:05;29.73;;;15.07;;
17886;SDS011;9069;52.044;7.472;2023-02-15T09:11:34;29.25;;;15.63;;
17886;SDS011;9069;52.044;7.472;2023-02-15T09:14:07;25.65;;;14.73;;
17886;SDS011;9069;52.044;7.472;2023-02-15T09:16:37;27.42;;;15.18;;
17886;SDS011;9069;52.044;7.472;2023-02-15T09:19:04;28.30;;;15.93;;
17886;SDS011;9069;52.044;7.472;2023-02-15T09:21:33;27.02;;;15.52;;
17886;SDS011;9069;52.044;7.472;2023-02-15T09:24:03;32.10;;;17.27;;
17886;SDS011;9069;52.044;7.472;2023-02-15T09:26:32;29.83;;;15.07;;
17886;SDS011;9069;52.044;7.472;2023-02-15T09:29:01;28.75;;;16.05;;
17886;SDS011;9069;52.044;7.472;2023-02-15T09:31:33;28.95;;;16.40;;
17886;SDS011;9069;52.044;7.472;2023-02-15T09:34:03;27.45;;;15.65;;
17886;SDS011;9069;52.044;7.472;2023-02-15T09:36:34;27.80;;;15.93;;
17886;SDS011;9069;52.044;7.472;2023-02-15T09:39:07;27.58;;;14.82;;
17886;SDS011;9069;52.044;7.472;2023-02-15T09:44:30;26.38;;;15.70;;
17886;SDS011;9069;52.044;7.472;2023-02-15T09:50:15;32.08;;;15.55;;
17886;SDS011;9069;52.044;7.472;2023-02-15T09:53:17;26.30;;;15.00;;
17886;SDS011;9069;52.044;7.472;2023-02-15T09:58:45;23.35;;;15.30;;
17886;SDS011;9069;52.044;7.472;2023-02-15T10:03:42;23.95;;;14.50;;
17886;SDS011;9069;52.044;7.472;2023-02-15T10:06:31;21.15;;;13.98;;
17886;SDS011;9069;52.044;7.472;2023-02-15T10:34:37;23.58;;;15.38;;
17886;SDS011;9069;52.044;7.472;2023-02-15T10:42:23;24.02;;;14.90;;
17886;SDS011;9069;52.044;7.472;2023-02-15T10:45:36;21.73;;;14.30;;
17886;SDS011;9069;52.044;7.472;2023-02-15T10:54:26;25.45;;;14.50;;
17886;SDS011;9069;52.044;7.472;2023-02-15T10:57:27;22.17;;;14.05;;
17886;SDS011;9069;52.044;7.472;2023-02-15T11:00:09;24.52;;;14.70;;
17886;SDS011;9069;52.044;7.472;2023-02-15T11:03:10;21.88;;;14.32;;
17886;SDS011;9069;52.044;7.472;2023-02-15T11:06:00;25.08;;;15.02;;
17886;SDS011;9069;52.044;7.472;2023-02-15T11:08:32;24.08;;;14.82;;
17886;SDS011;9069;52.044;7.472;2023-02-15T11:11:10;24.25;;;14.80;;
17886;SDS011;9069;52.044;7.472;2023-02-15T11:13:45;22.55;;;14.57;;
17886;SDS011;9069;52.044;7.472;2023-02-15T11:16:18;24.13;;;14.82;;
17886;SDS011;9069;52.044;7.472;2023-02-15T11:18:52;27.40;;;14.90;;
17886;SDS011;9069;52.044;7.472;2023-02-15T11:21:33;24.85;;;13.77;;
17886;SDS011;9069;52.044;7.472;2023-02-15T11:24:09;23.45;;;13.88;;
17886;SDS011;9069;52.044;7.472;2023-02-15T11:26:46;26.83;;;14.88;;
17886;SDS011;9069;52.044;7.472;2023-02-15T11:29:28;24.83;;;14.00;;
17886;SDS011;9069;52.044;7.472;2023-02-15T11:32:01;22.08;;;13.68;;
17886;SDS011;9069;52.044;7.472;2023-02-15T11:34:38;25.98;;;14.43;;
17886;SDS011;9069;52.044;7.472;2023-02-15T11:37:13;24.52;;;15.00;;
17886;SDS011;9069;52.044;7.472;2023-02-15T11:39:44;25.48;;;14.15;;
17886;SDS011;9069;52.044;7.472;2023-02-15T11:42:13;25.33;;;14.80;;
17886;SDS011;9069;52.044;7.472;2023-02-15T11:47:46;26.88;;;13.45;;
17886;SDS011;9069;52.044;7.472;2023-02-15T11:50:14;22.55;;;13.50;;
17886;SDS011;9069;52.044;7.472;2023-02-15T11:52:44;21.90;;;13.25;;
17886;SDS011;9069;52.044;7.472;2023-02-15T11:55:14;26.90;;;14.77;;
17886;SDS011;9069;52.044;7.472;2023-02-15T11:57:49;25.20;;;14.88;;
17886;SDS011;9069;52.044;7.472;2023-02-15T12:00:38;26.17;;;15.15;;
17886;SDS011;9069;52.044;7.472;2023-02-15T12:03:13;24.95;;;14.10;;
17886;SDS011;9069;52.044;7.472;2023-02-15T12:05:53;25.02;;;14.43;;
17886;SDS011;9069;52.044;7.472;2023-02-15T12:08:26;25.48;;;14.15;;
17886;SDS011;9069;52.044;7.472;2023-02-15T12:11:09;21.98;;;13.77;;
17886;SDS011;9069;52.044;7.472;2023-02-15T12:16:24;29.02;;;15.05;;
17886;SDS011;9069;52.044;7.472;2023-02-15T12:18:53;26.38;;;13.20;;
17886;SDS011;9069;52.044;7.472;2023-02-15T12:21:30;26.52;;;14.65;;
17886;SDS011;9069;52.044;7.472;2023-02-15T12:24:01;25.27;;;14.30;;
17886;SDS011;9069;52.044;7.472;2023-02-15T12:26:35;25.10;;;13.32;;
17886;SDS011;9069;52.044;7.472;2023-02-15T12:29:15;26.67;;;13.00;;
17886;SDS011;9069;52.044;7.472;2023-02-15T12:31:44;28.02;;;14.73;;
17886;SDS011;9069;52.044;7.472;2023-02-15T12:34:21;22.80;;;13.55;;
17886;SDS011;9069;52.044;7.472;2023-02-15T12:36:53;23.15;;;13.35;;
17886;SDS011;9069;52.044;7.472;2023-02-15T12:39:25;23.83;;;14.23;;
17886;SDS011;9069;52.044;7.472;2023-02-15T12:44:21;25.20;;;13.73;;
17886;SDS011;9069;52.044;7.472;2023-02-15T12:49:34;23.15;;;12.95;;
17886;SDS011;9069;52.044;7.472;2023-02-15T12:54:46;22.48;;;12.98;;
17886;SDS011;9069;52.044;7.472;2023-02-15T12:57:24;26.02;;;13.68;;
17886;SDS011;9069;52.044;7.472;2023-02-15T12:59:53;27.65;;;13.98;;
17886;SDS011;9069;52.044;7.472;2023-02-15T13:02:28;21.20;;;12.77;;
17886;SDS011;9069;52.044;7.472;2023-02-15T13:07:50;30.77;;;13.40;;
17886;SDS011;9069;52.044;7.472;2023-02-15T13:10:21;27.85;;;13.93;;
17886;SDS011;9069;52.044;7.472;2023-02-15T13:12:50;25.35;;;14.43;;
17886;SDS011;9069;52.044;7.472;2023-02-15T13:15:25;24.70;;;14.25;;
17886;SDS011;9069;52.044;7.472;2023-02-15T13:17:56;26.92;;;14.02;;
17886;SDS011;9069;52.044;7.472;2023-02-15T13:20:24;23.42;;;13.02;;
17886;SDS011;9069;52.044;7.472;2023-02-15T13:22:58;23.92;;;13.27;;
17886;SDS011;9069;52.044;7.472;2023-02-15T13:25:28;25.85;;;13.25;;
17886;SDS011;9069;52.044;7.472;2023-02-15T13:28:06;24.27;;;13.55;;
17886;SDS011;9069;52.044;7.472;2023-02-15T13:30:40;26.40;;;13.80;;
17886;SDS011;9069;52.044;7.472;2023-02-15T13:33:12;26.48;;;14.27;;
17886;SDS011;9069;52.044;7.472;2023-02-15T13:40:53;27.35;;;13.82;;
17886;SDS011;9069;52.044;7.472;2023-02-15T13:46:45;22.75;;;13.48;;
17886;SDS011;9069;52.044;7.472;2023-02-15T13:49:25;24.83;;;13.32;;
17886;SDS011;9069;52.044;7.472;2023-02-15T14:00:11;24.67;;;13.82;;
17886;SDS011;9069;52.044;7.472;2023-02-15T14:11:04;22.73;;;13.35;;
17886;SDS011;9069;52.044;7.472;2023-02-15T14:13:44;24.30;;;14.20;;
17886;SDS011;9069;52.044;7.472;2023-02-15T14:16:31;24.98;;;12.85;;
17886;SDS011;9069;52.044;7.472;2023-02-15T14:25:02;27.55;;;13.32;;
17886;SDS011;9069;52.044;7.472;2023-02-15T14:27:43;22.15;;;12.20;;
17886;SDS011;9069;52.044;7.472;2023-02-15T14:30:22;24.98;;;13.05;;
17886;SDS011;9069;52.044;7.472;2023-02-15T14:32:54;21.33;;;12.43;;
17886;SDS011;9069;52.044;7.472;2023-02-15T14:35:24;28.50;;;14.55;;
17886;SDS011;9069;52.044;7.472;2023-02-15T14:46:19;20.40;;;12.05;;
17886;SDS011;9069;52.044;7.472;2023-02-15T14:56:43;22.23;;;12.07;;
17886;SDS011;9069;52.044;7.472;2023-02-15T14:59:14;22.80;;;12.60;;
17886;SDS011;9069;52.044;7.472;2023-02-15T15:01:42;22.30;;;13.15;;
17886;SDS011;9069;52.044;7.472;2023-02-15T15:04:38;17.10;;;10.52;;
17886;SDS011;9069;52.044;7.472;2023-02-15T15:12:53;27.30;;;12.80;;
17886;SDS011;9069;52.044;7.472;2023-02-15T15:20:48;25.13;;;12.32;;
17886;SDS011;9069;52.044;7.472;2023-02-15T15:25:51;24.38;;;12.77;;
17886;SDS011;9069;52.044;7.472;2023-02-15T15:28:52;20.05;;;11.63;;
17886;SDS011;9069;52.044;7.472;2023-02-15T15:42:51;21.60;;;12.52;;
17886;SDS011;9069;52.044;7.472;2023-02-15T15:48:32;23.30;;;12.95;;
17886;SDS011;9069;52.044;7.472;2023-02-15T15:50:57;26.77;;;12.65;;
17886;SDS011;9069;52.044;7.472;2023-02-15T15:53:27;27.58;;;12.65;;
17886;SDS011;9069;52.044;7.472;2023-02-15T15:55:59;21.13;;;12.27;;
17886;SDS011;9069;52.044;7.472;2023-02-15T15:58:30;24.50;;;13.35;;
17886;SDS011;9069;52.044;7.472;2023-02-15T16:01:09;24.70;;;13.52;;
17886;SDS011;9069;52.044;7.472;2023-02-15T16:03:52;25.17;;;12.43;;
17886;SDS011;9069;52.044;7.472;2023-02-15T16:06:31;26.02;;;13.13;;
17886;SDS011;9069;52.044;7.472;2023-02-15T16:11:43;23.75;;;11.75;;
17886;SDS011;9069;52.044;7.472;2023-02-15T16:14:23;27.23;;;13.15;;
17886;SDS011;9069;52.044;7.472;2023-02-15T16:16:55;21.25;;;12.07;;
17886;SDS011;9069;52.044;7.472;2023-02-15T16:19:26;22.88;;;13.13;;
17886;SDS011;9069;52.044;7.472;2023-02-15T16:21:57;22.45;;;12.18;;
17886;SDS011;9069;52.044;7.472;2023-02-15T16:27:19;25.98;;;14.30;;
17886;SDS011;9069;52.044;7.472;2023-02-15T16:29:49;23.58;;;12.85;;
17886;SDS011;9069;52.044;7.472;2023-02-15T16:32:26;28.42;;;13.40;;
17886;SDS011;9069;52.044;7.472;2023-02-15T16:37:28;26.27;;;13.75;;
17886;SDS011;9069;52.044;7.472;2023-02-15T16:39:59;32.42;;;14.25;;
17886;SDS011;9069;52.044;7.472;2023-02-15T16:42:26;25.60;;;14.43;;
17886;SDS011;9069;52.044;7.472;2023-02-15T16:45:07;28.30;;;14.45;;
17886;SDS011;9069;52.044;7.472;2023-02-15T16:47:40;30.20;;;14.90;;
17886;SDS011;9069;52.044;7.472;2023-02-15T16:50:19;30.15;;;14.68;;
17886;SDS011;9069;52.044;7.472;2023-02-15T16:52:48;25.02;;;13.43;;
17886;SDS011;9069;52.044;7.472;2023-02-15T16:55:22;22.48;;;13.40;;
17886;SDS011;9069;52.044;7.472;2023-02-15T16:58:02;29.30;;;14.35;;
17886;SDS011;9069;52.044;7.472;2023-02-15T17:00:32;24.95;;;13.75;;
17886;SDS011;9069;52.044;7.472;2023-02-15T17:05:46;27.55;;;14.23;;
17886;SDS011;9069;52.044;7.472;2023-02-15T17:08:16;29.25;;;14.48;;
17886;SDS011;9069;52.044;7.472;2023-02-15T17:11:00;30.67;;;14.88;;
17886;SDS011;9069;52.044;7.472;2023-02-15T17:13:31;30.13;;;14.85;;
17886;SDS011;9069;52.044;7.472;2023-02-15T17:18:25;33.67;;;16.40;;
17886;SDS011;9069;52.044;7.472;2023-02-15T17:20:54;29.70;;;15.65;;
17886;SDS011;9069;52.044;7.472;2023-02-15T17:26:00;27.88;;;15.15;;
17886;SDS011;9069;52.044;7.472;2023-02-15T17:28:37;28.25;;;15.77;;
17886;SDS011;9069;52.044;7.472;2023-02-15T17:31:23;33.80;;;16.40;;
17886;SDS011;9069;52.044;7.472;2023-02-15T17:33:54;35.63;;;16.65;;
17886;SDS011;9069;52.044;7.472;2023-02-15T17:36:23;32.75;;;15.18;;
17886;SDS011;9069;52.044;7.472;2023-02-15T17:41:24;36.42;;;17.55;;
17886;SDS011;9069;52.044;7.472;2023-02-15T17:43:53;34.42;;;16.23;;
17886;SDS011;9069;52.044;7.472;2023-02-15T17:46:20;35.97;;;19.80;;
17886;SDS011;9069;52.044;7.472;2023-02-15T17:48:50;33.50;;;17.30;;
17886;SDS011;9069;52.044;7.472;2023-02-15T17:51:20;32.30;;;14.90;;
17886;SDS011;9069;52.044;7.472;2023-02-15T17:53:47;25.75;;;13.75;;
17886;SDS011;9069;52.044;7.472;2023-02-15T17:56:34;27.25;;;13.88;;
17886;SDS011;9069;52.044;7.472;2023-02-15T17:59:02;24.95;;;13.57;;
17886;SDS011;9069;52.044;7.472;2023-02-15T18:01:36;24.00;;;13.05;;
17886;SDS011;9069;52.044;7.472;2023-02-15T18:04:27;31.60;;;14.05;;
17886;SDS011;9069;52.044;7.472;2023-02-15T18:07:12;25.48;;;13.13;;
17886;SDS011;9069;52.044;7.472;2023-02-15T18:09:59;33.05;;;14.02;;